Time;durP1;ratioP1;P1;durP2;ratioP2;P2;SDS_P1;SDS_P2;PMS_P1;PMS_P2;Temp;Humidity;BMP_temperature;BMP_pressure;BME280_temperature;BME280_humidity;BME280_pressure;Samples;Min_cycle;Max_cycle;Signal;HPM_P1;HPM_P2
2023/08/01 00:00:09;;;;;;;6.50;3.17;;;24.30;88.50;;;;;;5034973;28;20187;-70
2023/08/01 00:02:39;;;;;;;8.77;3.10;;;24.30;87.70;;;;;;5050587;28;20292;-70
2023/08/01 00:05:05;;;;;;;5.80;3.30;;;24.30;87.90;;;;;;5051126;28;20195;-70
2023/08/01 00:07:32;;;;;;;4.60;2.97;;;24.20;87.50;;;;;;5054133;28;20249;-70
2023/08/01 00:09:58;;;;;;;5.37;3.40;;;24.20;87.40;;;;;;5050174;28;20187;-70
2023/08/01 00:12:25;;;;;;;5.50;2.90;;;24.20;87.30;;;;;;5049775;28;20507;-70
2023/08/01 00:14:51;;;;;;;6.47;3.27;;;24.20;86.80;;;;;;5048692;28;20191;-70
2023/08/01 00:17:18;;;;;;;8.70;3.30;;;24.20;86.00;;;;;;5053379;28;20281;-70
2023/08/01 00:19:44;;;;;;;6.10;3.40;;;24.20;85.70;;;;;;5050881;28;20202;-70
2023/08/01 00:22:10;;;;;;;8.50;3.88;;;24.10;85.70;;;;;;5061365;28;20289;-70
2023/08/01 00:24:37;;;;;;;6.87;3.37;;;24.10;85.30;;;;;;5051458;28;20844;-70
2023/08/01 00:27:04;;;;;;;6.13;3.53;;;24.20;84.70;;;;;;5048948;28;20313;-70
2023/08/01 00:29:30;;;;;;;8.10;3.90;;;24.20;84.80;;;;;;5054278;28;20811;-70
2023/08/01 00:31:56;;;;;;;11.17;4.10;;;24.30;84.10;;;;;;5048959;28;20220;-70
2023/08/01 00:34:23;;;;;;;6.63;3.60;;;24.40;84.10;;;;;;5053347;28;20190;-71
2023/08/01 00:36:49;;;;;;;7.70;3.47;;;24.40;83.80;;;;;;5052872;28;20195;-70
2023/08/01 00:39:16;;;;;;;4.95;3.67;;;24.50;83.40;;;;;;5056973;28;20535;-71
2023/08/01 00:41:42;;;;;;;8.00;3.93;;;24.50;83.10;;;;;;5054747;28;20190;-72
2023/08/01 00:44:09;;;;;;;4.33;3.40;;;24.50;82.70;;;;;;5070051;28;21034;-69
2023/08/01 00:46:35;;;;;;;9.73;3.47;;;24.50;82.70;;;;;;5052573;28;20621;-70
2023/08/01 00:49:02;;;;;;;6.33;3.57;;;24.60;82.40;;;;;;5059436;28;20209;-70
2023/08/01 00:51:32;;;;;;;7.25;3.97;;;24.60;82.40;;;;;;5057705;28;20893;-70
2023/08/01 00:54:01;;;;;;;6.07;3.67;;;24.60;81.60;;;;;;5060765;28;20194;-70
2023/08/01 00:56:27;;;;;;;3.50;3.08;;;24.70;82.00;;;;;;5052702;28;20202;-70
2023/08/01 00:58:53;;;;;;;6.27;3.40;;;24.70;81.50;;;;;;5058850;28;20281;-70
2023/08/01 01:01:20;;;;;;;7.72;3.90;;;24.70;81.60;;;;;;5053857;28;20345;-70
2023/08/01 01:03:46;;;;;;;8.47;3.40;;;24.70;81.60;;;;;;5057625;28;20186;-70
2023/08/01 01:06:25;;;;;;;7.97;3.30;;;24.70;81.40;;;;;;5055410;28;20298;-70
2023/08/01 01:08:53;;;;;;;6.00;3.42;;;24.80;81.10;;;;;;5055572;28;21018;-70
2023/08/01 01:11:19;;;;;;;7.88;3.80;;;24.90;81.00;;;;;;5057187;28;20186;-70
2023/08/01 01:13:45;;;;;;;6.47;3.50;;;24.90;80.80;;;;;;5056615;28;20230;-69
2023/08/01 01:16:12;;;;;;;8.98;3.70;;;24.80;80.90;;;;;;5059458;28;20195;-69
2023/08/01 01:18:38;;;;;;;4.70;3.13;;;24.80;81.10;;;;;;5058357;28;20665;-68
2023/08/01 01:21:05;;;;;;;7.70;3.30;;;24.70;81.10;;;;;;5053494;28;20191;-68
2023/08/01 01:23:33;;;;;;;5.20;3.80;;;24.60;81.10;;;;;;5054486;28;20195;-67
2023/08/01 01:26:00;;;;;;;6.35;3.58;;;24.60;81.20;;;;;;5047609;28;20274;-67
2023/08/01 01:28:28;;;;;;;5.63;3.53;;;24.50;81.20;;;;;;5051536;28;20195;-67
2023/08/01 01:30:56;;;;;;;12.57;3.78;;;24.50;81.20;;;;;;5047806;28;21913;-67
2023/08/01 01:33:22;;;;;;;8.25;3.50;;;24.50;81.30;;;;;;5052667;28;20975;-68
2023/08/01 01:35:48;;;;;;;8.03;3.37;;;24.40;81.20;;;;;;5054180;28;20244;-68
2023/08/01 01:38:16;;;;;;;5.80;3.53;;;24.40;81.30;;;;;;5053299;28;20530;-68
2023/08/01 01:40:43;;;;;;;8.82;3.88;;;24.40;81.40;;;;;;5065015;28;20268;-68
2023/08/01 01:43:09;;;;;;;10.07;3.73;;;24.40;81.80;;;;;;5051941;28;20221;-68
2023/08/01 01:45:35;;;;;;;9.57;3.90;;;24.30;81.40;;;;;;5049755;28;20930;-67
2023/08/01 01:48:02;;;;;;;7.80;3.43;;;24.30;82.40;;;;;;5044909;28;20214;-67
2023/08/01 01:50:28;;;;;;;9.53;3.70;;;24.30;83.50;;;;;;5047119;28;20198;-67
2023/08/01 01:52:54;;;;;;;7.15;3.42;;;24.40;85.50;;;;;;5042740;28;20187;-67
2023/08/01 01:55:20;;;;;;;9.07;3.80;;;24.50;86.50;;;;;;5044221;28;20198;-67
2023/08/01 01:57:46;;;;;;;7.03;3.63;;;24.50;87.20;;;;;;5047563;28;20341;-67
2023/08/01 02:00:13;;;;;;;8.50;3.30;;;24.60;87.90;;;;;;5066384;28;20674;-66
2023/08/01 02:02:40;;;;;;;5.20;3.60;;;24.60;87.80;;;;;;5049326;28;20194;-66
2023/08/01 02:05:06;;;;;;;7.33;3.40;;;24.60;87.80;;;;;;5063935;28;20301;-66
2023/08/01 02:07:33;;;;;;;9.82;3.70;;;24.60;87.10;;;;;;5048182;28;20296;-66
2023/08/01 02:10:01;;;;;;;4.05;2.95;;;24.50;86.50;;;;;;5077362;28;20601;-66
2023/08/01 02:12:31;;;;;;;6.43;3.33;;;24.40;85.20;;;;;;5047903;28;20195;-67
2023/08/01 02:14:58;;;;;;;6.63;3.07;;;24.30;85.20;;;;;;5070010;28;20190;-67
2023/08/01 02:17:25;;;;;;;4.45;3.08;;;24.20;85.20;;;;;;5069245;28;20278;-67
2023/08/01 02:19:51;;;;;;;10.13;3.47;;;24.10;84.80;;;;;;5049344;28;20195;-67
2023/08/01 02:22:17;;;;;;;8.27;3.27;;;24.00;84.90;;;;;;5051437;28;20203;-67
2023/08/01 02:24:43;;;;;;;6.23;3.37;;;24.00;84.20;;;;;;5056587;28;20188;-67
2023/08/01 02:27:10;;;;;;;7.60;3.50;;;24.10;84.50;;;;;;5054878;28;20264;-67
2023/08/01 02:29:36;;;;;;;8.53;3.23;;;24.10;84.70;;;;;;5035064;28;20195;-67
2023/08/01 02:32:02;;;;;;;6.25;3.33;;;24.00;84.10;;;;;;5061583;28;20832;-67
2023/08/01 02:34:28;;;;;;;6.13;3.00;;;23.90;84.30;;;;;;5051707;28;20188;-67
2023/08/01 02:36:55;;;;;;;6.85;3.10;;;23.70;84.60;;;;;;5058458;28;20190;-67
2023/08/01 02:39:21;;;;;;;7.38;3.13;;;23.60;84.60;;;;;;5069441;28;20199;-67
2023/08/01 02:41:47;;;;;;;4.30;3.10;;;23.50;85.00;;;;;;5051178;28;20206;-67
2023/08/01 02:44:13;;;;;;;8.57;2.95;;;23.40;85.40;;;;;;5052705;28;20195;-67
2023/08/01 02:46:40;;;;;;;4.82;3.03;;;23.30;85.90;;;;;;5072308;28;20801;-67
2023/08/01 02:49:07;;;;;;;6.70;3.22;;;23.20;86.10;;;;;;5055658;28;21352;-67
2023/08/01 02:51:33;;;;;;;4.20;2.97;;;23.10;86.40;;;;;;5057764;28;20190;-67
2023/08/01 02:53:59;;;;;;;7.50;3.20;;;23.10;86.60;;;;;;5050897;28;20801;-67
2023/08/01 02:56:27;;;;;;;6.83;3.07;;;23.00;86.60;;;;;;5050877;28;20549;-67
2023/08/01 02:58:55;;;;;;;6.30;3.73;;;23.00;87.00;;;;;;5059996;28;20203;-67
2023/08/01 03:01:21;;;;;;;8.17;3.10;;;23.10;87.10;;;;;;5059788;28;20842;-67
2023/08/01 03:03:51;;;;;;;7.83;3.20;;;23.20;87.60;;;;;;5059046;28;20229;-67
2023/08/01 03:06:18;;;;;;;8.17;3.30;;;23.30;88.20;;;;;;5060132;28;20252;-67
2023/08/01 03:08:44;;;;;;;7.13;3.40;;;23.30;89.70;;;;;;5051827;28;20238;-66
2023/08/01 03:11:10;;;;;;;4.60;2.90;;;23.40;91.80;;;;;;5056105;28;20195;-66
2023/08/01 03:13:36;;;;;;;6.23;3.00;;;23.40;93.00;;;;;;5053719;28;20190;-66
2023/08/01 03:16:04;;;;;;;8.70;3.50;;;23.50;95.00;;;;;;5082017;28;20539;-66
2023/08/01 03:18:30;;;;;;;8.97;2.97;;;23.60;96.90;;;;;;5055981;28;20260;-66
2023/08/01 03:20:59;;;;;;;11.63;3.47;;;23.60;97.10;;;;;;5051558;28;20895;-66
2023/08/01 03:23:25;;;;;;;8.00;3.70;;;23.60;99.30;;;;;;5038681;28;20194;-66
2023/08/01 03:25:51;;;;;;;7.10;3.10;;;23.60;99.80;;;;;;5056819;28;20673;-66
2023/08/01 03:28:18;;;;;;;7.10;3.77;;;23.70;99.90;;;;;;5054313;28;20207;-66
2023/08/01 03:30:44;;;;;;;11.20;4.03;;;23.80;99.90;;;;;;5053238;28;20202;-66
2023/08/01 03:33:10;;;;;;;8.57;4.17;;;23.90;99.90;;;;;;5060968;28;20344;-66
2023/08/01 03:35:36;;;;;;;12.40;4.03;;;24.00;99.90;;;;;;5058657;28;20278;-66
2023/08/01 03:38:03;;;;;;;13.23;4.00;;;24.00;99.90;;;;;;5054287;28;20798;-66
2023/08/01 03:40:29;;;;;;;12.00;3.50;;;24.10;99.90;;;;;;5052971;28;20734;-66
2023/08/01 03:42:55;;;;;;;13.27;4.30;;;24.10;99.90;;;;;;5058853;28;20191;-66
2023/08/01 03:45:21;;;;;;;10.73;3.92;;;24.20;99.90;;;;;;5058111;28;20194;-66
2023/08/01 03:47:47;;;;;;;14.17;5.23;;;24.30;99.90;;;;;;5059006;28;20210;-66
2023/08/01 03:50:14;;;;;;;11.77;4.33;;;24.30;99.90;;;;;;5054378;28;20705;-66
2023/08/01 03:52:40;;;;;;;15.03;5.30;;;24.40;99.90;;;;;;5052485;28;20199;-66
2023/08/01 03:55:07;;;;;;;11.47;4.47;;;24.30;99.90;;;;;;5056252;28;20340;-66
2023/08/01 03:57:33;;;;;;;16.70;5.33;;;24.40;99.90;;;;;;5056654;28;22705;-66
2023/08/01 04:00:00;;;;;;;8.00;3.97;;;24.40;99.90;;;;;;5055340;28;20270;-66
2023/08/01 04:02:26;;;;;;;14.50;4.20;;;24.40;99.90;;;;;;5050621;28;20195;-67
2023/08/01 04:04:53;;;;;;;13.20;4.30;;;24.30;99.90;;;;;;5053319;28;20199;-67
2023/08/01 04:07:19;;;;;;;8.00;3.70;;;24.20;99.90;;;;;;5057470;28;20222;-67
2023/08/01 04:09:45;;;;;;;11.40;3.97;;;24.20;99.90;;;;;;5050929;28;20772;-67
2023/08/01 04:12:12;;;;;;;10.40;3.80;;;24.20;99.90;;;;;;5050771;28;20215;-67
2023/08/01 04:14:38;;;;;;;7.13;3.60;;;24.10;99.90;;;;;;5072251;28;20194;-67
2023/08/01 04:17:05;;;;;;;8.50;3.77;;;24.10;99.90;;;;;;5053574;28;20195;-67
2023/08/01 04:19:31;;;;;;;9.67;3.50;;;24.10;99.90;;;;;;5066553;28;20244;-67
2023/08/01 04:21:57;;;;;;;9.87;3.93;;;24.10;99.90;;;;;;5054369;28;20192;-67
2023/08/01 04:24:25;;;;;;;9.43;3.60;;;24.00;99.90;;;;;;5054852;28;20569;-67
2023/08/01 04:26:52;;;;;;;7.07;3.00;;;23.90;99.90;;;;;;5052117;28;20202;-67
2023/08/01 04:29:18;;;;;;;6.28;3.25;;;23.90;99.90;;;;;;5031815;28;20616;-67
2023/08/01 04:31:45;;;;;;;8.88;3.95;;;23.70;99.90;;;;;;5043487;28;20212;-68
2023/08/01 04:34:11;;;;;;;5.72;3.20;;;23.70;99.90;;;;;;5049312;28;20192;-67
2023/08/01 04:36:40;;;;;;;8.30;3.50;;;23.60;99.90;;;;;;5056817;28;20686;-67
2023/08/01 04:39:06;;;;;;;5.07;2.90;;;23.60;99.90;;;;;;5050273;28;20637;-67
2023/08/01 04:41:33;;;;;;;8.40;3.40;;;23.70;99.90;;;;;;5057746;28;20202;-67
2023/08/01 04:43:59;;;;;;;5.77;2.83;;;23.80;99.90;;;;;;5061429;28;20199;-67
2023/08/01 04:46:25;;;;;;;8.20;3.10;;;23.90;99.90;;;;;;5059558;28;20203;-67
2023/08/01 04:48:51;;;;;;;4.97;3.30;;;24.00;99.90;;;;;;5050804;28;20294;-67
2023/08/01 04:51:18;;;;;;;6.37;3.10;;;24.10;99.90;;;;;;5054689;28;20183;-67
2023/08/01 04:53:44;;;;;;;6.50;2.80;;;24.10;99.90;;;;;;5056039;28;20541;-67
2023/08/01 04:56:10;;;;;;;4.13;2.77;;;24.30;98.90;;;;;;5070825;28;20287;-67
2023/08/01 04:58:36;;;;;;;15.20;3.60;;;24.40;98.90;;;;;;5057146;28;20198;-67
2023/08/01 05:01:02;;;;;;;9.93;3.30;;;24.50;98.40;;;;;;5046062;28;20278;-67
2023/08/01 05:03:29;;;;;;;10.87;3.40;;;24.50;97.80;;;;;;5055716;28;20290;-67
2023/08/01 05:05:55;;;;;;;6.73;3.33;;;24.70;96.60;;;;;;5053733;28;20182;-67
2023/08/01 05:08:21;;;;;;;8.63;3.13;;;24.70;96.20;;;;;;5059671;28;20233;-67
2023/08/01 05:10:47;;;;;;;6.17;3.33;;;24.90;97.30;;;;;;5060180;28;20282;-67
2023/08/01 05:13:13;;;;;;;6.60;3.38;;;24.90;97.30;;;;;;5060378;28;20187;-67
2023/08/01 05:15:40;;;;;;;7.70;3.53;;;25.00;96.60;;;;;;5055400;28;20195;-67
2023/08/01 05:18:06;;;;;;;8.23;3.17;;;25.10;96.70;;;;;;5052588;28;20183;-67
2023/08/01 05:20:33;;;;;;;11.93;3.47;;;25.10;96.60;;;;;;5061976;28;20195;-67
2023/08/01 05:22:59;;;;;;;8.10;3.07;;;25.20;96.50;;;;;;5058262;28;20196;-67
2023/08/01 05:25:26;;;;;;;10.70;3.17;;;25.30;95.70;;;;;;5058377;28;20661;-67
2023/08/01 05:27:52;;;;;;;8.02;3.10;;;25.40;95.10;;;;;;5057299;28;20226;-67
2023/08/01 05:30:18;;;;;;;14.70;3.70;;;25.60;94.60;;;;;;5059460;28;20333;-67
2023/08/01 05:32:47;;;;;;;7.82;3.90;;;25.60;94.70;;;;;;5059344;28;20261;-67
2023/08/01 05:35:14;;;;;;;7.55;3.22;;;25.60;95.00;;;;;;5059033;28;20522;-67
2023/08/01 05:37:40;;;;;;;7.40;3.30;;;25.70;95.20;;;;;;5058275;28;20190;-67
2023/08/01 05:40:07;;;;;;;5.68;3.38;;;25.70;95.20;;;;;;5055440;28;20676;-67
2023/08/01 05:42:34;;;;;;;6.57;3.08;;;25.80;95.40;;;;;;5053730;28;20183;-67
2023/08/01 05:45:00;;;;;;;8.55;3.10;;;25.80;95.20;;;;;;5057649;28;20240;-67
2023/08/01 05:47:26;;;;;;;7.18;3.30;;;25.90;94.90;;;;;;5059362;28;20574;-68
2023/08/01 05:49:52;;;;;;;7.78;3.45;;;25.90;95.10;;;;;;5066034;28;20557;-67
2023/08/01 05:52:19;;;;;;;6.60;3.30;;;25.90;94.60;;;;;;5062326;28;20195;-67
2023/08/01 05:54:45;;;;;;;7.70;3.35;;;26.00;94.70;;;;;;5057857;28;20225;-67
2023/08/01 05:57:12;;;;;;;6.40;3.05;;;26.10;94.10;;;;;;5060391;28;20226;-67
2023/08/01 05:59:38;;;;;;;8.88;3.40;;;26.20;94.70;;;;;;5057684;28;20187;-67
2023/08/01 06:02:05;;;;;;;8.32;3.33;;;26.20;95.10;;;;;;5063016;28;20633;-67
2023/08/01 06:04:41;;;;;;;9.90;3.42;;;26.20;95.00;;;;;;5059262;28;20661;-67
2023/08/01 06:07:07;;;;;;;5.88;3.30;;;26.30;94.50;;;;;;5053814;28;20786;-67
2023/08/01 06:09:33;;;;;;;9.60;3.25;;;26.40;94.90;;;;;;5076094;28;20263;-67
2023/08/01 06:12:00;;;;;;;10.23;3.63;;;26.40;95.60;;;;;;5059083;28;20644;-67
2023/08/01 06:14:26;;;;;;;10.70;3.80;;;26.50;96.10;;;;;;5079993;28;20193;-67
2023/08/01 06:16:52;;;;;;;8.50;3.47;;;26.60;96.10;;;;;;5061120;28;20182;-67
2023/08/01 06:19:19;;;;;;;8.68;3.65;;;26.70;96.20;;;;;;5065980;28;20179;-67
2023/08/01 06:21:45;;;;;;;9.18;3.78;;;26.80;96.00;;;;;;5049583;28;20186;-67
2023/08/01 06:24:11;;;;;;;19.45;3.50;;;26.80;96.00;;;;;;5053373;28;20174;-67
2023/08/01 06:26:37;;;;;;;9.02;3.30;;;27.00;95.70;;;;;;5061356;28;20322;-67
2023/08/01 06:29:03;;;;;;;9.65;3.10;;;27.00;94.50;;;;;;5059305;28;20170;-67
2023/08/01 06:31:30;;;;;;;10.05;3.30;;;27.10;95.10;;;;;;5059941;28;20229;-67
2023/08/01 06:33:56;;;;;;;5.95;3.15;;;27.20;95.00;;;;;;5059612;28;20286;-67
2023/08/01 06:36:22;;;;;;;10.60;3.58;;;27.30;95.10;;;;;;5063084;28;20184;-67
2023/08/01 06:38:48;;;;;;;5.72;3.10;;;27.30;94.90;;;;;;5061211;28;20175;-67
2023/08/01 06:41:15;;;;;;;12.07;3.50;;;27.40;94.90;;;;;;5062676;28;20182;-67
2023/08/01 06:43:41;;;;;;;11.15;3.28;;;27.50;94.40;;;;;;5057020;28;20685;-67
2023/08/01 06:46:08;;;;;;;5.60;3.20;;;27.60;94.60;;;;;;5059206;28;20277;-67
2023/08/01 06:48:34;;;;;;;7.25;3.40;;;27.60;91.80;;;;;;5065871;28;20604;-67
2023/08/01 06:51:02;;;;;;;11.07;3.92;;;27.80;91.40;;;;;;5063713;28;20954;-67
2023/08/01 06:53:28;;;;;;;9.50;3.40;;;27.80;91.50;;;;;;5061361;28;20685;-67
2023/08/01 06:55:55;;;;;;;7.18;3.90;;;27.90;92.60;;;;;;5057755;28;20190;-67
2023/08/01 06:58:21;;;;;;;6.13;2.88;;;28.00;91.80;;;;;;5060971;28;20375;-67
2023/08/01 07:00:47;;;;;;;13.00;3.35;;;28.10;90.00;;;;;;5062418;28;20257;-67
2023/08/01 07:03:13;;;;;;;8.35;3.60;;;28.20;94.80;;;;;;5057806;28;20730;-67
2023/08/01 07:05:40;;;;;;;6.75;3.40;;;28.40;96.50;;;;;;5056791;28;20646;-67
2023/08/01 07:08:06;;;;;;;10.50;3.38;;;28.50;97.50;;;;;;5060007;28;20211;-67
2023/08/01 07:10:35;;;;;;;9.02;3.42;;;28.50;96.50;;;;;;5071093;28;20186;-67
2023/08/01 07:13:05;;;;;;;9.52;3.67;;;28.60;97.30;;;;;;5062218;28;20206;-67
2023/08/01 07:15:33;;;;;;;13.90;3.95;;;28.70;97.30;;;;;;5058071;28;20190;-67
2023/08/01 07:18:02;;;;;;;15.57;3.83;;;28.80;99.90;;;;;;5060223;28;20187;-67
2023/08/01 07:20:29;;;;;;;12.63;4.25;;;28.80;99.90;;;;;;5057104;28;20183;-67
2023/08/01 07:22:55;;;;;;;8.13;3.95;;;29.00;99.90;;;;;;5055491;28;20210;-67
2023/08/01 07:25:22;;;;;;;11.32;3.70;;;29.10;99.90;;;;;;5059141;28;20182;-67
2023/08/01 07:27:48;;;;;;;14.15;3.58;;;29.10;99.90;;;;;;5059762;28;20201;-67
2023/08/01 07:30:14;;;;;;;11.25;4.05;;;29.10;99.90;;;;;;5059613;28;20247;-67
2023/08/01 07:32:41;;;;;;;10.63;4.40;;;29.20;99.90;;;;;;5072892;28;20221;-67
2023/08/01 07:35:09;;;;;;;13.35;4.32;;;29.30;99.90;;;;;;5058953;28;20565;-67
2023/08/01 07:37:37;;;;;;;13.48;4.20;;;29.30;99.90;;;;;;5050597;28;20645;-67
2023/08/01 07:40:08;;;;;;;15.88;4.10;;;29.30;99.90;;;;;;5061431;28;20198;-67
2023/08/01 07:42:34;;;;;;;12.30;3.92;;;29.30;99.90;;;;;;5063612;28;20191;-67
2023/08/01 07:45:01;;;;;;;13.73;3.42;;;29.30;99.90;;;;;;5058777;28;20239;-67
2023/08/01 07:47:27;;;;;;;11.40;4.00;;;29.40;99.90;;;;;;5062464;28;20764;-67
2023/08/01 07:49:53;;;;;;;8.07;3.70;;;29.50;99.90;;;;;;5059556;28;20186;-67
2023/08/01 07:52:19;;;;;;;10.70;3.67;;;29.50;99.90;;;;;;5059113;28;20178;-67
2023/08/01 07:54:46;;;;;;;9.55;3.65;;;29.50;99.90;;;;;;5060428;28;20272;-67
2023/08/01 07:57:12;;;;;;;10.98;3.40;;;29.50;99.90;;;;;;5059984;28;20187;-67
2023/08/01 07:59:38;;;;;;;15.25;3.95;;;29.60;99.90;;;;;;5057531;28;20546;-67
2023/08/01 08:02:05;;;;;;;7.40;3.47;;;29.60;99.90;;;;;;5059108;28;20665;-67
2023/08/01 08:04:31;;;;;;;10.93;3.90;;;29.70;99.90;;;;;;5058250;28;20614;-67
2023/08/01 08:06:59;;;;;;;10.02;3.60;;;29.70;99.90;;;;;;5056744;28;20241;-67
2023/08/01 08:09:27;;;;;;;13.35;4.25;;;29.80;99.90;;;;;;5063238;28;20186;-67
2023/08/01 08:11:53;;;;;;;11.68;3.72;;;29.80;99.90;;;;;;5056209;28;20189;-67
2023/08/01 08:14:21;;;;;;;6.63;3.53;;;30.00;99.90;;;;;;5056784;28;20188;-67
2023/08/01 08:16:47;;;;;;;14.30;3.90;;;30.10;99.90;;;;;;5056299;28;20293;-67
2023/08/01 08:19:13;;;;;;;12.00;4.45;;;30.10;99.90;;;;;;5053691;28;20218;-67
2023/08/01 08:21:40;;;;;;;11.65;3.88;;;30.10;99.90;;;;;;5055715;28;21468;-67
2023/08/01 08:24:06;;;;;;;10.00;4.10;;;30.20;99.90;;;;;;5057656;28;20199;-67
2023/08/01 08:26:37;;;;;;;11.48;3.70;;;30.40;99.90;;;;;;5084697;28;20578;-67
2023/08/01 08:29:06;;;;;;;12.88;4.05;;;30.40;99.90;;;;;;5055994;28;20586;-67
2023/08/01 08:31:33;;;;;;;8.57;3.17;;;30.50;99.90;;;;;;5055541;28;20737;-67
2023/08/01 08:33:59;;;;;;;11.70;4.00;;;30.50;99.90;;;;;;5060476;28;20269;-67
2023/08/01 08:36:25;;;;;;;11.73;3.95;;;30.60;99.90;;;;;;5042899;28;20294;-67
2023/08/01 08:38:52;;;;;;;10.80;3.40;;;30.70;99.90;;;;;;5054833;28;20197;-67
2023/08/01 08:41:26;;;;;;;12.90;3.63;;;30.90;99.90;;;;;;5056419;28;20957;-67
2023/08/01 08:43:59;;;;;;;19.52;4.20;;;31.00;99.90;;;;;;5057721;28;20182;-67
2023/08/01 08:46:33;;;;;;;12.20;3.65;;;31.00;99.90;;;;;;5056370;28;20217;-67
2023/08/01 08:49:02;;;;;;;9.23;3.42;;;31.00;99.90;;;;;;5056552;28;20653;-67
2023/08/01 08:51:29;;;;;;;10.43;3.65;;;31.00;99.90;;;;;;5056940;28;20186;-67
2023/08/01 08:53:57;;;;;;;11.18;3.45;;;31.10;99.90;;;;;;5054164;28;20257;-67
2023/08/01 08:56:24;;;;;;;11.05;3.88;;;31.20;99.90;;;;;;5053079;28;21042;-67
2023/08/01 08:58:52;;;;;;;7.45;3.50;;;31.30;99.90;;;;;;5058446;28;20685;-67
2023/08/01 09:01:19;;;;;;;9.77;3.75;;;31.30;99.90;;;;;;5056954;28;20186;-68
2023/08/01 09:03:45;;;;;;;11.38;4.13;;;31.40;99.90;;;;;;5049256;28;20193;-68
2023/08/01 09:06:16;;;;;;;10.20;3.88;;;31.50;99.90;;;;;;5051889;28;20287;-67
2023/08/01 09:08:55;;;;;;;10.43;3.65;;;31.60;99.90;;;;;;5051099;28;20198;-67
2023/08/01 09:11:21;;;;;;;13.77;4.22;;;31.80;99.90;;;;;;5066024;28;20279;-68
2023/08/01 09:13:50;;;;;;;12.73;3.72;;;31.80;99.90;;;;;;5056231;28;20297;-67
2023/08/01 09:16:16;;;;;;;9.13;3.90;;;31.90;99.90;;;;;;5051772;28;20267;-67
2023/08/01 09:18:53;;;;;;;10.05;3.75;;;32.00;99.90;;;;;;5042365;28;20187;-67
2023/08/01 09:21:23;;;;;;;11.20;3.83;;;32.10;99.90;;;;;;5059892;28;20182;-67
2023/08/01 09:23:49;;;;;;;17.02;4.18;;;32.20;99.90;;;;;;5058476;28;20197;-68
2023/08/01 09:26:17;;;;;;;13.55;4.00;;;32.20;99.90;;;;;;5054691;28;20211;-68
2023/08/01 09:28:54;;;;;;;8.57;3.67;;;32.30;99.90;;;;;;5055506;28;20187;-67
2023/08/01 09:31:31;;;;;;;9.48;3.38;;;32.40;99.90;;;;;;5054944;28;20823;-67
2023/08/01 09:33:57;;;;;;;15.65;3.80;;;32.50;99.90;;;;;;5057159;28;20265;-67
2023/08/01 09:36:25;;;;;;;9.15;3.58;;;32.50;99.90;;;;;;5054518;28;20190;-67
2023/08/01 09:38:57;;;;;;;11.38;3.40;;;32.40;99.90;;;;;;5052818;28;20233;-67
2023/08/01 09:41:23;;;;;;;15.38;3.80;;;32.60;99.90;;;;;;5058497;28;20206;-67
2023/08/01 09:43:50;;;;;;;12.90;3.78;;;32.70;99.90;;;;;;5060905;28;20281;-67
2023/08/01 09:46:17;;;;;;;13.20;4.03;;;32.60;99.90;;;;;;5059939;28;20194;-67
2023/08/01 09:48:43;;;;;;;11.32;3.67;;;32.70;99.90;;;;;;5056757;28;20187;-67
2023/08/01 09:51:14;;;;;;;11.48;3.80;;;32.80;99.90;;;;;;5054691;28;20187;-68
2023/08/01 09:54:10;;;;;;;11.32;4.05;;;32.90;99.90;;;;;;5049784;28;20581;-68
2023/08/01 09:56:37;;;;;;;11.05;3.72;;;32.90;99.90;;;;;;5046085;28;20202;-68
2023/08/01 09:59:04;;;;;;;10.88;3.85;;;33.00;99.90;;;;;;5075483;28;20187;-68
2023/08/01 10:01:33;;;;;;;15.00;3.92;;;33.10;99.90;;;;;;5051269;28;20183;-68
2023/08/01 10:04:00;;;;;;;12.50;3.65;;;33.10;99.90;;;;;;5055444;28;20190;-68
2023/08/01 10:06:33;;;;;;;6.63;3.08;;;33.40;99.90;;;;;;5049689;28;20187;-68
2023/08/01 10:09:01;;;;;;;10.85;3.45;;;33.50;99.90;;;;;;5059471;28;20244;-68
2023/08/01 10:11:31;;;;;;;15.82;3.60;;;33.60;99.90;;;;;;5055559;28;20183;-68
2023/08/01 10:13:57;;;;;;;8.98;3.53;;;33.60;99.90;;;;;;5061149;28;20206;-68
2023/08/01 10:16:25;;;;;;;8.02;3.35;;;33.60;99.90;;;;;;5061678;28;20176;-68
2023/08/01 10:18:54;;;;;;;11.52;3.38;;;33.70;99.90;;;;;;5057340;28;20191;-68
2023/08/01 10:21:22;;;;;;;11.77;3.65;;;33.80;99.90;;;;;;5057537;28;20188;-68
2023/08/01 10:23:49;;;;;;;7.18;3.10;;;33.70;99.90;;;;;;5057434;28;20286;-68
2023/08/01 10:26:17;;;;;;;8.60;3.05;;;33.70;99.90;;;;;;5056344;28;20725;-68
2023/08/01 10:28:52;;;;;;;12.07;3.58;;;33.90;99.90;;;;;;5071687;28;20252;-68
2023/08/01 10:31:21;;;;;;;9.35;3.92;;;33.90;99.90;;;;;;5056178;28;20210;-68
2023/08/01 10:33:49;;;;;;;13.43;3.65;;;33.90;99.90;;;;;;5058578;28;20176;-68
2023/08/01 10:36:20;;;;;;;18.40;3.88;;;33.90;99.90;;;;;;5057927;28;20265;-68
2023/08/01 10:38:54;;;;;;;9.75;3.25;;;34.00;99.90;;;;;;5060028;28;20213;-68
2023/08/01 10:41:30;;;;;;;12.43;3.63;;;33.90;99.90;;;;;;5075429;28;20175;-68
2023/08/01 10:44:12;;;;;;;10.27;3.53;;;33.90;99.90;;;;;;5056049;28;20222;-68
2023/08/01 10:46:50;;;;;;;21.80;3.85;;;34.00;99.90;;;;;;5063338;28;20215;-67
2023/08/01 10:49:19;;;;;;;12.57;3.50;;;33.90;99.90;;;;;;5062624;28;20893;-67
2023/08/01 10:51:46;;;;;;;9.55;3.45;;;33.80;99.90;;;;;;5064321;28;20207;-67
2023/08/01 10:54:24;;;;;;;9.20;3.70;;;33.80;99.90;;;;;;5061987;28;20668;-67
2023/08/01 10:56:59;;;;;;;10.27;3.20;;;33.70;99.90;;;;;;5059521;28;20188;-67
2023/08/01 10:59:26;;;;;;;10.02;3.50;;;33.70;99.90;;;;;;5062959;28;20190;-67
2023/08/01 11:01:58;;;;;;;8.15;3.03;;;33.60;99.90;;;;;;5059896;28;20265;-67
2023/08/01 11:04:25;;;;;;;7.30;2.78;;;33.50;99.90;;;;;;5058552;28;20179;-67
2023/08/01 11:06:57;;;;;;;9.25;2.85;;;33.40;98.50;;;;;;5055672;28;20218;-67
2023/08/01 11:09:26;;;;;;;10.60;3.05;;;33.30;97.10;;;;;;5060745;28;20217;-67
2023/08/01 11:12:00;;;;;;;6.50;2.55;;;33.30;97.20;;;;;;5062097;28;20191;-67
2023/08/01 11:14:29;;;;;;;6.95;2.95;;;33.30;97.10;;;;;;5076701;28;20695;-67
2023/08/01 11:16:57;;;;;;;5.47;2.72;;;33.30;96.50;;;;;;5059339;28;20266;-67
2023/08/01 11:19:28;;;;;;;6.00;2.80;;;33.30;97.00;;;;;;5076786;28;20198;-67
2023/08/01 11:21:57;;;;;;;8.68;3.13;;;33.30;96.40;;;;;;5056273;28;20186;-67
2023/08/01 11:24:25;;;;;;;8.60;2.85;;;33.30;96.30;;;;;;5064648;28;20262;-67
2023/08/01 11:26:54;;;;;;;13.20;3.20;;;33.20;96.40;;;;;;5062566;28;20198;-67
2023/08/01 11:29:21;;;;;;;11.63;3.20;;;33.20;96.00;;;;;;5060535;28;20375;-67
2023/08/01 11:32:07;;;;;;;7.00;2.78;;;33.10;96.10;;;;;;5058313;28;20319;-67
2023/08/01 11:34:44;;;;;;;8.55;2.95;;;33.00;96.10;;;;;;5060611;28;20183;-67
2023/08/01 11:37:12;;;;;;;8.70;3.25;;;33.10;96.60;;;;;;5062065;28;20195;-68
2023/08/01 11:39:39;;;;;;;15.93;2.70;;;33.20;96.60;;;;;;5057463;28;20194;-68
2023/08/01 11:42:05;;;;;;;7.25;3.20;;;33.20;96.60;;;;;;5057038;28;20834;-68
2023/08/01 11:44:32;;;;;;;8.88;3.10;;;33.20;96.70;;;;;;5057293;28;20183;-68
2023/08/01 11:46:58;;;;;;;13.63;3.58;;;33.20;96.60;;;;;;5059716;28;20213;-68
2023/08/01 11:49:26;;;;;;;9.25;2.85;;;33.10;96.60;;;;;;5055288;28;20193;-68
2023/08/01 11:51:53;;;;;;;10.50;3.22;;;33.10;96.60;;;;;;5062313;28;20641;-68
2023/08/01 11:54:21;;;;;;;8.65;2.88;;;33.00;97.40;;;;;;5058430;28;20190;-68
2023/08/01 11:56:47;;;;;;;7.07;2.72;;;32.90;97.50;;;;;;5059357;28;20199;-68
2023/08/01 11:59:17;;;;;;;8.95;3.30;;;32.90;97.40;;;;;;5053660;28;20715;-68
2023/08/01 12:01:46;;;;;;;10.40;2.92;;;32.70;97.30;;;;;;5059488;28;20584;-68
2023/08/01 12:04:25;;;;;;;13.40;2.88;;;32.60;96.80;;;;;;5061570;28;20183;-68
2023/08/01 12:06:52;;;;;;;10.25;2.97;;;32.70;97.90;;;;;;5052070;28;20606;-68
2023/08/01 12:09:23;;;;;;;7.45;2.53;;;32.70;98.00;;;;;;5070972;28;20277;-68
2023/08/01 12:12:03;;;;;;;12.90;3.78;;;32.70;97.70;;;;;;5053080;28;20190;-68
2023/08/01 12:14:31;;;;;;;13.75;3.50;;;32.80;98.10;;;;;;5057369;28;20545;-68
2023/08/01 12:16:57;;;;;;;6.95;3.03;;;32.70;98.00;;;;;;5056981;28;20290;-67
2023/08/01 12:19:23;;;;;;;8.85;2.60;;;32.70;98.10;;;;;;5061917;28;20680;-67
2023/08/01 12:21:50;;;;;;;8.15;2.67;;;32.70;98.30;;;;;;5044763;28;20269;-67
2023/08/01 12:24:16;;;;;;;8.60;2.85;;;32.80;97.90;;;;;;5037577;28;20244;-68
2023/08/01 12:26:43;;;;;;;9.68;2.80;;;32.80;97.90;;;;;;5057399;28;20234;-68
2023/08/01 12:29:10;;;;;;;7.78;2.85;;;32.80;98.60;;;;;;5060600;28;20913;-68
2023/08/01 12:31:36;;;;;;;12.57;3.33;;;32.80;98.40;;;;;;5052295;28;20632;-67
2023/08/01 12:34:03;;;;;;;8.57;2.72;;;32.60;97.90;;;;;;5061715;28;20535;-67
2023/08/01 12:40:16;;;;;;;6.57;2.72;;;32.60;97.30;;;;;;5059121;28;20733;-68
2023/08/01 12:42:45;;;;;;;5.90;2.40;;;32.50;96.70;;;;;;5049677;28;21058;-67
2023/08/01 12:45:11;;;;;;;9.10;2.90;;;32.50;96.60;;;;;;5049612;28;20191;-67
2023/08/01 12:47:38;;;;;;;11.05;2.97;;;32.50;96.20;;;;;;5055828;28;20222;-67